sensor_id;sensor_type;location;lat;lon;timestamp;pressure;altitude;pressure_sealevel;temperature;humidity
62617;BME280;62539;51.190;6.808;2023-05-20T00:01:57;101931.44;;;21.65;47.76
62617;BME280;62539;51.190;6.808;2023-05-20T00:04:22;101939.38;;;21.64;48.00
62617;BME280;62539;51.190;6.808;2023-05-20T00:06:48;101940.28;;;21.63;48.00
62617;BME280;62539;51.190;6.808;2023-05-20T00:09:13;101935.03;;;21.61;48.11
62617;BME280;62539;51.190;6.808;2023-05-20T00:11:39;101932.41;;;21.61;48.12
62617;BME280;62539;51.190;6.808;2023-05-20T00:14:04;101932.44;;;21.59;48.05
62617;BME280;62539;51.190;6.808;2023-05-20T00:16:30;101930.69;;;21.58;47.86
62617;BME280;62539;51.190;6.808;2023-05-20T00:18:55;101933.41;;;21.57;48.01
62617;BME280;62539;51.190;6.808;2023-05-20T00:21:21;101935.16;;;21.56;48.13
62617;BME280;62539;51.190;6.808;2023-05-20T00:23:47;101940.50;;;21.55;47.89
62617;BME280;62539;51.190;6.808;2023-05-20T00:26:12;101941.34;;;21.55;48.01
62617;BME280;62539;51.190;6.808;2023-05-20T00:28:37;101941.41;;;21.54;47.83
62617;BME280;62539;51.190;6.808;2023-05-20T00:31:03;101951.16;;;21.52;47.91
62617;BME280;62539;51.190;6.808;2023-05-20T00:33:29;101943.25;;;21.50;47.98
62617;BME280;62539;51.190;6.808;2023-05-20T00:35:55;101941.53;;;21.49;48.14
62617;BME280;62539;51.190;6.808;2023-05-20T00:38:20;101940.69;;;21.47;48.00
62617;BME280;62539;51.190;6.808;2023-05-20T00:40:45;101942.50;;;21.47;48.31
62617;BME280;62539;51.190;6.808;2023-05-20T00:43:11;101941.66;;;21.44;48.21
62617;BME280;62539;51.190;6.808;2023-05-20T00:45:37;101942.56;;;21.43;48.09
62617;BME280;62539;51.190;6.808;2023-05-20T00:48:03;101947.84;;;21.43;48.24
62617;BME280;62539;51.190;6.808;2023-05-20T00:50:30;101942.59;;;21.42;48.20
62617;BME280;62539;51.190;6.808;2023-05-20T00:52:56;101939.13;;;21.41;48.20
62617;BME280;62539;51.190;6.808;2023-05-20T00:55:23;101934.75;;;21.40;48.27
62617;BME280;62539;51.190;6.808;2023-05-20T00:57:51;101941.78;;;21.40;48.33
62617;BME280;62539;51.190;6.808;2023-05-20T01:00:17;101941.84;;;21.38;48.37
62617;BME280;62539;51.190;6.808;2023-05-20T01:02:43;101937.47;;;21.37;47.94
62617;BME280;62539;51.190;6.808;2023-05-20T01:05:08;101938.38;;;21.36;48.42
62617;BME280;62539;51.190;6.808;2023-05-20T01:07:34;101927.00;;;21.34;48.32
62617;BME280;62539;51.190;6.808;2023-05-20T01:10:00;101930.53;;;21.33;48.03
62617;BME280;62539;51.190;6.808;2023-05-20T01:12:27;101932.31;;;21.33;48.13
62617;BME280;62539;51.190;6.808;2023-05-20T01:15:10;101931.47;;;21.30;48.31
62617;BME280;62539;51.190;6.808;2023-05-20T01:17:39;101930.63;;;21.30;48.31
62617;BME280;62539;51.190;6.808;2023-05-20T01:20:09;101937.72;;;21.28;47.97
62617;BME280;62539;51.190;6.808;2023-05-20T01:22:38;101931.56;;;21.27;48.12
62617;BME280;62539;51.190;6.808;2023-05-20T01:25:13;101923.72;;;21.24;48.22
62617;BME280;62539;51.190;6.808;2023-05-20T01:27:38;101930.81;;;21.24;48.16
62617;BME280;62539;51.190;6.808;2023-05-20T01:30:04;101927.34;;;21.22;48.05
62617;BME280;62539;51.190;6.808;2023-05-20T01:32:35;101926.47;;;21.21;48.06
62617;BME280;62539;51.190;6.808;2023-05-20T01:35:05;101919.50;;;21.19;48.11
62617;BME280;62539;51.190;6.808;2023-05-20T01:37:34;101921.28;;;21.18;48.10
62617;BME280;62539;51.190;6.808;2023-05-20T01:40:03;101920.41;;;21.18;48.11
62617;BME280;62539;51.190;6.808;2023-05-20T01:42:29;101918.69;;;21.17;48.48
62617;BME280;62539;51.190;6.808;2023-05-20T01:44:55;101922.22;;;21.15;48.20
62617;BME280;62539;51.190;6.808;2023-05-20T01:47:20;101916.13;;;21.13;48.08
62617;BME280;62539;51.190;6.808;2023-05-20T01:49:46;101917.91;;;21.13;48.66
62617;BME280;62539;51.190;6.808;2023-05-20T01:52:12;101915.31;;;21.11;48.29
62617;BME280;62539;51.190;6.808;2023-05-20T01:54:37;101918.84;;;21.10;48.00
62617;BME280;62539;51.190;6.808;2023-05-20T01:57:03;101908.34;;;21.09;48.34
62617;BME280;62539;51.190;6.808;2023-05-20T01:59:29;101909.25;;;21.08;48.19
62617;BME280;62539;51.190;6.808;2023-05-20T02:01:54;101896.09;;;21.06;48.28
62617;BME280;62539;51.190;6.808;2023-05-20T02:04:20;101908.44;;;21.06;48.15
62617;BME280;62539;51.190;6.808;2023-05-20T02:06:46;101909.34;;;21.05;48.06
62617;BME280;62539;51.190;6.808;2023-05-20T02:09:13;101908.47;;;21.04;48.14
62617;BME280;62539;51.190;6.808;2023-05-20T02:11:38;101910.28;;;21.02;48.00
62617;BME280;62539;51.190;6.808;2023-05-20T02:14:04;101908.53;;;21.01;48.26
62617;BME280;62539;51.190;6.808;2023-05-20T02:16:29;101912.09;;;21.00;48.28
62617;BME280;62539;51.190;6.808;2023-05-20T02:18:54;101913.91;;;20.98;48.08
62617;BME280;62539;51.190;6.808;2023-05-20T02:21:22;101906.00;;;20.98;48.27
62617;BME280;62539;51.190;6.808;2023-05-20T02:23:48;101901.63;;;20.97;48.00
62617;BME280;62539;51.190;6.808;2023-05-20T02:26:14;101905.16;;;20.96;48.27
62617;BME280;62539;51.190;6.808;2023-05-20T02:28:39;101907.84;;;20.94;48.36
62617;BME280;62539;51.190;6.808;2023-05-20T02:31:10;101913.16;;;20.93;48.40
62617;BME280;62539;51.190;6.808;2023-05-20T02:33:36;101910.53;;;20.93;48.10
62617;BME280;62539;51.190;6.808;2023-05-20T02:36:01;101906.22;;;20.90;48.25
62617;BME280;62539;51.190;6.808;2023-05-20T02:38:26;101903.59;;;20.89;48.06
62617;BME280;62539;51.190;6.808;2023-05-20T02:40:52;101898.31;;;20.89;48.36
62617;BME280;62539;51.190;6.808;2023-05-20T02:43:17;101896.59;;;20.88;48.17
62617;BME280;62539;51.190;6.808;2023-05-20T02:45:43;101895.75;;;20.85;48.23
62617;BME280;62539;51.190;6.808;2023-05-20T02:48:08;101891.41;;;20.84;48.14
62617;BME280;62539;51.190;6.808;2023-05-20T02:50:37;101892.28;;;20.85;48.25
62617;BME280;62539;51.190;6.808;2023-05-20T02:53:03;101887.09;;;20.82;48.31
62617;BME280;62539;51.190;6.808;2023-05-20T02:55:28;101887.09;;;20.80;48.27
62617;BME280;62539;51.190;6.808;2023-05-20T02:57:54;101888.91;;;20.80;48.03
62617;BME280;62539;51.190;6.808;2023-05-20T03:00:19;101881.88;;;20.79;48.23
62617;BME280;62539;51.190;6.808;2023-05-20T03:02:46;101874.88;;;20.78;48.33
62617;BME280;62539;51.190;6.808;2023-05-20T03:05:11;101884.53;;;20.77;48.44
62617;BME280;62539;51.190;6.808;2023-05-20T03:07:37;101868.78;;;20.74;48.52
62617;BME280;62539;51.190;6.808;2023-05-20T03:10:03;101875.84;;;20.74;48.37
62617;BME280;62539;51.190;6.808;2023-05-20T03:12:29;101882.03;;;20.73;48.54
62617;BME280;62539;51.190;6.808;2023-05-20T03:14:55;101876.75;;;20.73;48.57
62617;BME280;62539;51.190;6.808;2023-05-20T03:17:22;101878.56;;;20.70;48.53
62617;BME280;62539;51.190;6.808;2023-05-20T03:19:48;101882.94;;;20.70;48.58
62617;BME280;62539;51.190;6.808;2023-05-20T03:22:13;101882.09;;;20.69;48.36
62617;BME280;62539;51.190;6.808;2023-05-20T03:24:39;101868.94;;;20.68;48.55
62617;BME280;62539;51.190;6.808;2023-05-20T03:27:05;101879.50;;;20.68;48.62
62617;BME280;62539;51.190;6.808;2023-05-20T03:29:31;101886.56;;;20.66;48.51
62617;BME280;62539;51.190;6.808;2023-05-20T03:31:57;101887.47;;;20.65;48.44
62617;BME280;62539;51.190;6.808;2023-05-20T03:34:23;101884.84;;;20.65;48.40
62617;BME280;62539;51.190;6.808;2023-05-20T03:36:50;101883.09;;;20.64;48.72
62617;BME280;62539;51.190;6.808;2023-05-20T03:39:15;101876.97;;;20.63;48.75
62617;BME280;62539;51.190;6.808;2023-05-20T03:41:41;101872.63;;;20.61;48.69
62617;BME280;62539;51.190;6.808;2023-05-20T03:44:06;101873.53;;;20.61;48.73
62617;BME280;62539;51.190;6.808;2023-05-20T03:46:31;101863.00;;;20.60;48.46
62617;BME280;62539;51.190;6.808;2023-05-20T03:48:58;101863.06;;;20.58;48.75
62617;BME280;62539;51.190;6.808;2023-05-20T03:51:26;101862.19;;;20.58;48.57
62617;BME280;62539;51.190;6.808;2023-05-20T03:53:51;101859.59;;;20.56;48.76
62617;BME280;62539;51.190;6.808;2023-05-20T03:56:16;101863.97;;;20.55;48.71
62617;BME280;62539;51.190;6.808;2023-05-20T03:58:42;101856.97;;;20.54;48.81
62617;BME280;62539;51.190;6.808;2023-05-20T04:01:07;101855.25;;;20.53;48.64
62617;BME280;62539;51.190;6.808;2023-05-20T04:03:33;101861.44;;;20.52;48.86
62617;BME280;62539;51.190;6.808;2023-05-20T04:05:58;101856.22;;;20.51;48.92
62617;BME280;62539;51.190;6.808;2023-05-20T04:08:23;101859.69;;;20.51;48.88
62617;BME280;62539;51.190;6.808;2023-05-20T04:10:54;101854.47;;;20.50;49.06
62617;BME280;62539;51.190;6.808;2023-05-20T04:13:19;101864.13;;;20.49;48.83
62617;BME280;62539;51.190;6.808;2023-05-20T04:15:46;101861.50;;;20.49;48.81
62617;BME280;62539;51.190;6.808;2023-05-20T04:18:11;101861.50;;;20.49;48.47
62617;BME280;62539;51.190;6.808;2023-05-20T04:20:37;101862.41;;;20.48;48.93
62617;BME280;62539;51.190;6.808;2023-05-20T04:23:05;101865.03;;;20.48;48.97
62617;BME280;62539;51.190;6.808;2023-05-20T04:25:31;101862.41;;;20.48;48.81
62617;BME280;62539;51.190;6.808;2023-05-20T04:27:58;101859.78;;;20.48;49.05
62617;BME280;62539;51.190;6.808;2023-05-20T04:30:24;101856.28;;;20.48;48.85
62617;BME280;62539;51.190;6.808;2023-05-20T04:32:50;101860.69;;;20.47;48.96
62617;BME280;62539;51.190;6.808;2023-05-20T04:35:15;101851.88;;;20.48;48.99
62617;BME280;62539;51.190;6.808;2023-05-20T04:37:41;101855.41;;;20.47;49.01
62617;BME280;62539;51.190;6.808;2023-05-20T04:40:09;101855.41;;;20.47;49.12
62617;BME280;62539;51.190;6.808;2023-05-20T04:42:36;101850.13;;;20.47;48.93
62617;BME280;62539;51.190;6.808;2023-05-20T04:45:02;101851.88;;;20.48;48.97
62617;BME280;62539;51.190;6.808;2023-05-20T04:47:30;101848.38;;;20.48;48.98
62617;BME280;62539;51.190;6.808;2023-05-20T04:49:56;101849.22;;;20.48;49.13
62617;BME280;62539;51.190;6.808;2023-05-20T04:52:25;101847.47;;;20.49;49.09
62617;BME280;62539;51.190;6.808;2023-05-20T04:54:51;101853.59;;;20.49;49.06
62617;BME280;62539;51.190;6.808;2023-05-20T04:57:17;101847.47;;;20.49;49.23
62617;BME280;62539;51.190;6.808;2023-05-20T04:59:46;101856.22;;;20.49;49.13
62617;BME280;62539;51.190;6.808;2023-05-20T05:02:12;101855.31;;;20.50;49.21
62617;BME280;62539;51.190;6.808;2023-05-20T05:04:38;101854.41;;;20.51;49.11
62617;BME280;62539;51.190;6.808;2023-05-20T05:07:04;101856.22;;;20.51;49.30
62617;BME280;62539;51.190;6.808;2023-05-20T05:09:30;101857.94;;;20.52;49.31
62617;BME280;62539;51.190;6.808;2023-05-20T05:11:55;101843.84;;;20.53;49.13
62617;BME280;62539;51.190;6.808;2023-05-20T05:14:21;101853.53;;;20.52;49.18
62617;BME280;62539;51.190;6.808;2023-05-20T05:16:47;101849.97;;;20.53;49.25
62617;BME280;62539;51.190;6.808;2023-05-20T05:19:13;101848.22;;;20.54;49.24
62617;BME280;62539;51.190;6.808;2023-05-20T05:21:39;101849.06;;;20.54;49.14
62617;BME280;62539;51.190;6.808;2023-05-20T05:24:04;101845.59;;;20.54;49.03
62617;BME280;62539;51.190;6.808;2023-05-20T05:26:30;101836.78;;;20.55;49.15
62617;BME280;62539;51.190;6.808;2023-05-20T05:28:55;101838.50;;;20.56;49.11
62617;BME280;62539;51.190;6.808;2023-05-20T05:31:20;101841.13;;;20.56;49.21
62617;BME280;62539;51.190;6.808;2023-05-20T05:33:46;101835.81;;;20.58;49.51
62617;BME280;62539;51.190;6.808;2023-05-20T05:36:11;101828.81;;;20.56;49.24
62617;BME280;62539;51.190;6.808;2023-05-20T05:38:37;101833.19;;;20.58;49.14
62617;BME280;62539;51.190;6.808;2023-05-20T05:41:02;101834.00;;;20.60;49.07
62617;BME280;62539;51.190;6.808;2023-05-20T05:43:28;101828.72;;;20.60;49.17
62617;BME280;62539;51.190;6.808;2023-05-20T05:45:53;101829.59;;;20.60;48.77
62617;BME280;62539;51.190;6.808;2023-05-20T05:48:19;101832.19;;;20.62;48.95
62617;BME280;62539;51.190;6.808;2023-05-20T05:50:45;101832.19;;;20.62;48.90
62617;BME280;62539;51.190;6.808;2023-05-20T05:53:11;101825.16;;;20.62;49.12
62617;BME280;62539;51.190;6.808;2023-05-20T05:55:36;101826.91;;;20.63;48.93
62617;BME280;62539;51.190;6.808;2023-05-20T05:58:02;101824.25;;;20.63;49.21
62617;BME280;62539;51.190;6.808;2023-05-20T06:00:27;101819.84;;;20.64;48.89
62617;BME280;62539;51.190;6.808;2023-05-20T06:02:53;101816.28;;;20.65;49.17
62617;BME280;62539;51.190;6.808;2023-05-20T06:05:18;101826.84;;;20.65;49.22
62617;BME280;62539;51.190;6.808;2023-05-20T06:07:44;101827.72;;;20.65;49.13
62617;BME280;62539;51.190;6.808;2023-05-20T06:10:09;101826.81;;;20.66;49.14
62617;BME280;62539;51.190;6.808;2023-05-20T06:12:35;101819.75;;;20.67;49.14
62617;BME280;62539;51.190;6.808;2023-05-20T06:15:00;101821.47;;;20.68;49.24
62617;BME280;62539;51.190;6.808;2023-05-20T06:17:26;101824.09;;;20.69;49.14
62617;BME280;62539;51.190;6.808;2023-05-20T06:19:51;101821.41;;;20.71;49.20
62617;BME280;62539;51.190;6.808;2023-05-20T06:22:17;101814.38;;;20.71;48.92
62617;BME280;62539;51.190;6.808;2023-05-20T06:24:42;101814.31;;;20.73;49.08
62617;BME280;62539;51.190;6.808;2023-05-20T06:27:07;101823.03;;;20.75;48.83
62617;BME280;62539;51.190;6.808;2023-05-20T06:29:33;101814.22;;;20.76;48.85
62617;BME280;62539;51.190;6.808;2023-05-20T06:31:58;101808.03;;;20.77;48.93
62617;BME280;62539;51.190;6.808;2023-05-20T06:34:24;101814.19;;;20.79;48.99
62617;BME280;62539;51.190;6.808;2023-05-20T06:36:49;101812.38;;;20.81;48.78
62617;BME280;62539;51.190;6.808;2023-05-20T06:39:14;101808.81;;;20.82;48.81
62617;BME280;62539;51.190;6.808;2023-05-20T06:41:40;101811.38;;;20.85;48.92
62617;BME280;62539;51.190;6.808;2023-05-20T06:44:06;101807.81;;;20.88;48.87
62617;BME280;62539;51.190;6.808;2023-05-20T06:46:32;101801.56;;;20.91;49.12
62617;BME280;62539;51.190;6.808;2023-05-20T06:48:58;101804.09;;;20.94;49.08
62617;BME280;62539;51.190;6.808;2023-05-20T06:51:26;101799.63;;;20.97;49.24
62617;BME280;62539;51.190;6.808;2023-05-20T06:53:52;101806.63;;;20.98;48.85
62617;BME280;62539;51.190;6.808;2023-05-20T06:56:18;101798.63;;;21.02;49.11
62617;BME280;62539;51.190;6.808;2023-05-20T06:58:43;101801.22;;;21.03;48.95
62617;BME280;62539;51.190;6.808;2023-05-20T07:01:09;101802.03;;;21.05;48.80
62617;BME280;62539;51.190;6.808;2023-05-20T07:03:34;101806.41;;;21.06;49.11
62617;BME280;62539;51.190;6.808;2023-05-20T07:06:00;101799.31;;;21.08;49.00
62617;BME280;62539;51.190;6.808;2023-05-20T07:08:25;101788.66;;;21.11;49.12
62617;BME280;62539;51.190;6.808;2023-05-20T07:10:51;101807.94;;;21.13;48.91
62617;BME280;62539;51.190;6.808;2023-05-20T07:13:19;101793.84;;;21.14;48.88
62617;BME280;62539;51.190;6.808;2023-05-20T07:15:48;101795.56;;;21.15;49.02
62617;BME280;62539;51.190;6.808;2023-05-20T07:18:13;101806.03;;;21.19;49.00
62617;BME280;62539;51.190;6.808;2023-05-20T07:20:39;101800.72;;;21.20;48.93
62617;BME280;62539;51.190;6.808;2023-05-20T07:23:04;101800.66;;;21.22;48.96
62617;BME280;62539;51.190;6.808;2023-05-20T07:25:30;101791.84;;;21.23;49.14
62617;BME280;62539;51.190;6.808;2023-05-20T07:27:55;101791.78;;;21.24;49.04
62617;BME280;62539;51.190;6.808;2023-05-20T07:30:20;101798.75;;;21.27;48.87
62617;BME280;62539;51.190;6.808;2023-05-20T07:32:46;101792.50;;;21.29;48.95
62617;BME280;62539;51.190;6.808;2023-05-20T07:35:11;101788.13;;;21.30;48.83
62617;BME280;62539;51.190;6.808;2023-05-20T07:37:37;101784.56;;;21.31;48.86
62617;BME280;62539;51.190;6.808;2023-05-20T07:40:02;101772.19;;;21.33;48.71
62617;BME280;62539;51.190;6.808;2023-05-20T07:42:29;101775.66;;;21.35;48.66
62617;BME280;62539;51.190;6.808;2023-05-20T07:44:55;101782.66;;;21.36;48.88
62617;BME280;62539;51.190;6.808;2023-05-20T07:47:20;101789.66;;;21.37;48.66
62617;BME280;62539;51.190;6.808;2023-05-20T07:49:45;101793.97;;;21.40;48.87
62617;BME280;62539;51.190;6.808;2023-05-20T07:52:11;101788.66;;;21.41;48.62
62617;BME280;62539;51.190;6.808;2023-05-20T07:54:36;101790.38;;;21.42;48.79
62617;BME280;62539;51.190;6.808;2023-05-20T07:57:02;101791.19;;;21.44;48.71
62617;BME280;62539;51.190;6.808;2023-05-20T07:59:27;101796.38;;;21.48;48.70
62617;BME280;62539;51.190;6.808;2023-05-20T08:01:52;101779.63;;;21.49;48.62
62617;BME280;62539;51.190;6.808;2023-05-20T08:04:18;101783.09;;;21.51;48.51
62617;BME280;62539;51.190;6.808;2023-05-20T08:06:43;101781.31;;;21.51;48.43
62617;BME280;62539;51.190;6.808;2023-05-20T08:09:09;101772.44;;;21.54;48.16
62617;BME280;62539;51.190;6.808;2023-05-20T08:11:35;101781.19;;;21.54;48.55
62617;BME280;62539;51.190;6.808;2023-05-20T08:14:00;101771.47;;;21.56;48.46
62617;BME280;62539;51.190;6.808;2023-05-20T08:16:26;101778.44;;;21.59;48.51
62617;BME280;62539;51.190;6.808;2023-05-20T08:18:52;101781.91;;;21.61;47.99
62617;BME280;62539;51.190;6.808;2023-05-20T08:21:17;101766.00;;;21.63;48.14
62617;BME280;62539;51.190;6.808;2023-05-20T08:23:43;101779.19;;;21.64;47.98
62617;BME280;62539;51.190;6.808;2023-05-20T08:26:08;101781.75;;;21.66;48.34
62617;BME280;62539;51.190;6.808;2023-05-20T08:28:34;101772.00;;;21.68;48.10
62617;BME280;62539;51.190;6.808;2023-05-20T08:31:01;101771.09;;;21.69;47.88
62617;BME280;62539;51.190;6.808;2023-05-20T08:33:27;101777.19;;;21.71;48.15
62617;BME280;62539;51.190;6.808;2023-05-20T08:35:53;101772.78;;;21.71;48.19
62617;BME280;62539;51.190;6.808;2023-05-20T08:38:18;101770.97;;;21.73;47.96
62617;BME280;62539;51.190;6.808;2023-05-20T08:40:44;101777.06;;;21.76;48.19
62617;BME280;62539;51.190;6.808;2023-05-20T08:43:10;101777.88;;;21.78;48.00
62617;BME280;62539;51.190;6.808;2023-05-20T08:45:38;101774.31;;;21.79;48.04
62617;BME280;62539;51.190;6.808;2023-05-20T08:48:04;101777.78;;;21.81;47.61
62617;BME280;62539;51.190;6.808;2023-05-20T08:50:30;101770.66;;;21.83;47.78
62617;BME280;62539;51.190;6.808;2023-05-20T08:52:56;101778.53;;;21.84;47.80
62617;BME280;62539;51.190;6.808;2023-05-20T08:55:29;101772.31;;;21.87;47.82
62617;BME280;62539;51.190;6.808;2023-05-20T08:58:02;101772.22;;;21.88;47.74
62617;BME280;62539;51.190;6.808;2023-05-20T09:00:27;101769.56;;;21.90;47.90
62617;BME280;62539;51.190;6.808;2023-05-20T09:02:54;101772.09;;;21.93;47.68
62617;BME280;62539;51.190;6.808;2023-05-20T09:05:21;101780.84;;;21.95;47.58
62617;BME280;62539;51.190;6.808;2023-05-20T09:07:47;101782.56;;;21.96;47.71
62617;BME280;62539;51.190;6.808;2023-05-20T09:10:12;101777.22;;;21.98;47.63
62617;BME280;62539;51.190;6.808;2023-05-20T09:12:38;101776.31;;;21.99;47.37
62617;BME280;62539;51.190;6.808;2023-05-20T09:15:04;101771.00;;;21.99;47.26
62617;BME280;62539;51.190;6.808;2023-05-20T09:17:34;101773.63;;;22.00;47.33
62617;BME280;62539;51.190;6.808;2023-05-20T09:20:00;101766.50;;;22.02;47.43
62617;BME280;62539;51.190;6.808;2023-05-20T09:22:30;101771.78;;;22.02;47.65
62617;BME280;62539;51.190;6.808;2023-05-20T09:24:56;101768.16;;;22.05;47.18
62617;BME280;62539;51.190;6.808;2023-05-20T09:27:21;101772.59;;;22.05;47.40
62617;BME280;62539;51.190;6.808;2023-05-20T09:29:49;101774.25;;;22.07;47.55
62617;BME280;62539;51.190;6.808;2023-05-20T09:32:16;101771.59;;;22.09;47.36
62617;BME280;62539;51.190;6.808;2023-05-20T09:34:45;101769.75;;;22.11;47.33
62617;BME280;62539;51.190;6.808;2023-05-20T09:37:13;101772.34;;;22.12;47.08
62617;BME280;62539;51.190;6.808;2023-05-20T09:39:54;101776.66;;;22.15;46.98
62617;BME280;62539;51.190;6.808;2023-05-20T09:42:26;101774.03;;;22.15;47.46
62617;BME280;62539;51.190;6.808;2023-05-20T09:44:58;101766.03;;;22.16;47.39
62617;BME280;62539;51.190;6.808;2023-05-20T09:47:26;101777.38;;;22.20;47.25
62617;BME280;62539;51.190;6.808;2023-05-20T09:49:51;101771.16;;;22.21;47.30
62617;BME280;62539;51.190;6.808;2023-05-20T09:52:18;101758.78;;;22.23;47.28
62617;BME280;62539;51.190;6.808;2023-05-20T09:54:44;101762.22;;;22.25;47.12
62617;BME280;62539;51.190;6.808;2023-05-20T09:57:11;101763.88;;;22.28;46.82
62617;BME280;62539;51.190;6.808;2023-05-20T09:59:37;101763.84;;;22.29;46.81
62617;BME280;62539;51.190;6.808;2023-05-20T10:02:04;101773.44;;;22.32;46.66
62617;BME280;62539;51.190;6.808;2023-05-20T10:04:32;101767.19;;;22.35;47.05
62617;BME280;62539;51.190;6.808;2023-05-20T10:13:05;101754.56;;;22.43;46.69
62617;BME280;62539;51.190;6.808;2023-05-20T10:19:02;101762.41;;;22.46;46.50
62617;BME280;62539;51.190;6.808;2023-05-20T10:21:29;101754.38;;;22.49;46.37
62617;BME280;62539;51.190;6.808;2023-05-20T10:24:05;101761.41;;;22.50;46.76
62617;BME280;62539;51.190;6.808;2023-05-20T10:26:37;101757.75;;;22.53;46.42
62617;BME280;62539;51.190;6.808;2023-05-20T10:29:17;101768.28;;;22.54;46.37
62617;BME280;62539;51.190;6.808;2023-05-20T10:31:47;101755.88;;;22.56;46.32
62617;BME280;62539;51.190;6.808;2023-05-20T10:34:15;101748.75;;;22.58;46.52
62617;BME280;62539;51.190;6.808;2023-05-20T10:39:18;101758.22;;;22.64;46.23
62617;BME280;62539;51.190;6.808;2023-05-20T10:41:50;101764.34;;;22.66;46.04
62617;BME280;62539;51.190;6.808;2023-05-20T10:44:15;101761.66;;;22.68;46.38
62617;BME280;62539;51.190;6.808;2023-05-20T10:46:41;101755.44;;;22.69;46.25
62617;BME280;62539;51.190;6.808;2023-05-20T10:49:16;101760.72;;;22.69;46.41
62617;BME280;62539;51.190;6.808;2023-05-20T10:51:45;101755.44;;;22.69;46.16
62617;BME280;62539;51.190;6.808;2023-05-20T10:54:11;101760.72;;;22.69;46.32
62617;BME280;62539;51.190;6.808;2023-05-20T10:56:38;101760.72;;;22.69;46.09
62617;BME280;62539;51.190;6.808;2023-05-20T10:59:05;101758.09;;;22.69;46.37
62617;BME280;62539;51.190;6.808;2023-05-20T11:01:31;101757.19;;;22.68;46.10
62617;BME280;62539;51.190;6.808;2023-05-20T11:03:57;101757.28;;;22.67;46.46
62617;BME280;62539;51.190;6.808;2023-05-20T11:06:26;101746.69;;;22.67;46.22
62617;BME280;62539;51.190;6.808;2023-05-20T11:08:53;101759.97;;;22.65;46.52
62617;BME280;62539;51.190;6.808;2023-05-20T11:11:21;101759.97;;;22.65;46.20
62617;BME280;62539;51.190;6.808;2023-05-20T11:13:50;101759.13;;;22.65;46.47
62617;BME280;62539;51.190;6.808;2023-05-20T11:16:16;101760.94;;;22.63;46.57
62617;BME280;62539;51.190;6.808;2023-05-20T11:18:41;101755.66;;;22.63;46.52
62617;BME280;62539;51.190;6.808;2023-05-20T11:21:07;101753.03;;;22.63;46.37
62617;BME280;62539;51.190;6.808;2023-05-20T11:23:32;101757.44;;;22.62;46.21
62617;BME280;62539;51.190;6.808;2023-05-20T11:25:58;101753.94;;;22.61;46.35
62617;BME280;62539;51.190;6.808;2023-05-20T11:28:23;101746.84;;;22.62;46.57
62617;BME280;62539;51.190;6.808;2023-05-20T11:30:51;101736.22;;;22.64;46.44
62617;BME280;62539;51.190;6.808;2023-05-20T11:33:18;101739.69;;;22.66;46.46
62617;BME280;62539;51.190;6.808;2023-05-20T11:35:46;101736.00;;;22.70;46.00
62617;BME280;62539;51.190;6.808;2023-05-20T11:38:13;101729.72;;;22.72;46.02
62617;BME280;62539;51.190;6.808;2023-05-20T11:40:50;101719.91;;;22.76;46.26
62617;BME280;62539;51.190;6.808;2023-05-20T11:43:18;101719.78;;;22.79;46.17
62617;BME280;62539;51.190;6.808;2023-05-20T11:45:47;101717.03;;;22.82;45.95
62617;BME280;62539;51.190;6.808;2023-05-20T11:48:18;101726.56;;;22.86;46.04
62617;BME280;62539;51.190;6.808;2023-05-20T11:50:45;101708.75;;;22.92;45.67
62617;BME280;62539;51.190;6.808;2023-05-20T11:53:19;101711.06;;;22.99;45.83
62617;BME280;62539;51.190;6.808;2023-05-20T11:55:52;101711.84;;;23.03;45.80
62617;BME280;62539;51.190;6.808;2023-05-20T11:58:28;101700.25;;;23.05;45.38
62617;BME280;62539;51.190;6.808;2023-05-20T12:00:55;101696.56;;;23.10;45.40
62617;BME280;62539;51.190;6.808;2023-05-20T12:03:20;101686.75;;;23.13;45.17
62617;BME280;62539;51.190;6.808;2023-05-20T12:05:46;101676.88;;;23.17;45.11
62617;BME280;62539;51.190;6.808;2023-05-20T12:08:13;101682.00;;;23.22;45.33
62617;BME280;62539;51.190;6.808;2023-05-20T12:10:39;101670.50;;;23.23;45.40
62617;BME280;62539;51.190;6.808;2023-05-20T12:13:05;101681.91;;;23.25;45.10
62617;BME280;62539;51.190;6.808;2023-05-20T12:15:34;101676.53;;;23.26;44.94
62617;BME280;62539;51.190;6.808;2023-05-20T12:18:00;101666.75;;;23.28;45.35
62617;BME280;62539;51.190;6.808;2023-05-20T12:20:26;101667.56;;;23.30;45.12
62617;BME280;62539;51.190;6.808;2023-05-20T12:22:51;101663.00;;;23.34;44.85
62617;BME280;62539;51.190;6.808;2023-05-20T12:25:18;101670.03;;;23.35;45.10
62617;BME280;62539;51.190;6.808;2023-05-20T12:27:45;101672.72;;;23.33;45.21
62617;BME280;62539;51.190;6.808;2023-05-20T12:30:16;101671.06;;;23.31;44.98
62617;BME280;62539;51.190;6.808;2023-05-20T12:32:45;101672.97;;;23.27;45.10
62617;BME280;62539;51.190;6.808;2023-05-20T12:35:11;101665.09;;;23.26;45.01
62617;BME280;62539;51.190;6.808;2023-05-20T12:37:41;101666.03;;;23.25;45.05
62617;BME280;62539;51.190;6.808;2023-05-20T12:40:08;101645.66;;;23.27;45.38
62617;BME280;62539;51.190;6.808;2023-05-20T12:42:40;101664.84;;;23.32;44.88
62617;BME280;62539;51.190;6.808;2023-05-20T12:45:07;101658.50;;;23.36;45.17
62617;BME280;62539;51.190;6.808;2023-05-20T12:47:34;101657.47;;;23.40;45.07
62617;BME280;62539;51.190;6.808;2023-05-20T12:50:00;101664.41;;;23.43;45.14
62617;BME280;62539;51.190;6.808;2023-05-20T12:52:27;101659.19;;;23.41;44.79
62617;BME280;62539;51.190;6.808;2023-05-20T12:54:53;101657.47;;;23.40;44.77
62617;BME280;62539;51.190;6.808;2023-05-20T12:57:20;101650.44;;;23.39;45.14
62617;BME280;62539;51.190;6.808;2023-05-20T12:59:46;101639.84;;;23.39;44.79